Time;durP1;ratioP1;P1;durP2;ratioP2;P2;SDS_P1;SDS_P2;PMS_P1;PMS_P2;Temp;Humidity;BMP_temperature;BMP_pressure;BME280_temperature;BME280_humidity;BME280_pressure;Samples;Min_cycle;Max_cycle;Signal;HPM_P1;HPM_P2
2022/03/28 08:20:58;;;;;;;13.70;1.90;;;21.80;92.70;;;;;;5091295;28;20058;-70
2022/03/28 08:23:25;;;;;;;6.10;1.75;;;21.80;92.90;;;;;;5093077;28;20032;-71
2022/03/28 08:25:53;;;;;;;5.40;1.70;;;21.80;92.80;;;;;;5068359;28;20028;-70
2022/03/28 08:28:20;;;;;;;12.77;1.90;;;21.80;93.00;;;;;;5095508;28;20571;-72
2022/03/28 08:30:47;;;;;;;6.55;1.58;;;21.80;93.10;;;;;;5102748;28;20093;-74
2022/03/28 08:33:14;;;;;;;7.38;1.40;;;21.80;93.00;;;;;;5074696;28;20038;-73
2022/03/28 08:35:42;;;;;;;7.28;1.60;;;21.80;93.20;;;;;;5091814;28;20393;-72
2022/03/28 08:38:12;;;;;;;7.25;1.73;;;21.80;93.30;;;;;;5091632;28;20023;-72
2022/03/28 08:40:41;;;;;;;;;;;21.80;93.40;;;;;;5113917;28;20089;-71
2022/03/28 08:43:09;;;;;;;9.60;1.40;;;21.80;93.30;;;;;;5087238;28;19912;-71
2022/03/28 08:45:39;;;;;;;6.28;1.60;;;21.80;93.20;;;;;;5091156;28;20028;-71
2022/03/28 08:48:05;;;;;;;;;;;21.80;93.20;;;;;;5074897;28;20032;-72
2022/03/28 08:50:36;;;;;;;3.55;1.20;;;21.80;93.10;;;;;;5091020;28;20325;-73
2022/03/28 08:53:05;;;;;;;6.32;1.80;;;21.80;93.30;;;;;;5065840;28;20024;-74
2022/03/28 08:55:33;;;;;;;6.43;1.42;;;21.80;93.40;;;;;;5075516;28;20094;-74
2022/03/28 08:58:00;;;;;;;5.40;1.52;;;21.80;93.40;;;;;;5058315;28;20441;-72
2022/03/28 09:00:27;;;;;;;5.38;1.67;;;21.80;93.30;;;;;;5091451;28;20036;-74
2022/03/28 09:02:58;;;;;;;3.22;1.48;;;21.80;93.20;;;;;;5100450;28;20424;-71
2022/03/28 09:05:42;;;;;;;3.53;1.10;;;21.80;93.30;;;;;;5073999;28;20074;-72
2022/03/28 09:08:10;;;;;;;5.43;1.80;;;21.80;93.00;;;;;;5107932;28;20038;-72
2022/03/28 09:10:37;;;;;;;4.43;1.45;;;21.80;93.10;;;;;;5095075;28;20104;-71
2022/03/28 09:13:12;;;;;;;8.02;1.40;;;21.80;92.90;;;;;;5113151;28;20036;-73
2022/03/28 09:15:46;;;;;;;6.28;1.50;;;21.80;92.80;;;;;;5105861;28;20061;-72
2022/03/28 09:18:30;;;;;;;6.80;1.67;;;21.80;92.70;;;;;;5074516;28;20617;-72
2022/03/28 09:45:55;;;;;;;7.72;2.00;;;21.80;92.50;;;;;;5111924;27;20084;-83
2022/03/28 09:48:24;;;;;;;6.50;1.63;;;21.80;92.70;;;;;;5077150;28;20035;-85
2022/03/28 09:50:57;;;;;;;4.93;1.52;;;21.80;92.80;;;;;;5088670;28;20036;-81
2022/03/28 09:53:27;;;;;;;10.05;1.75;;;21.80;92.70;;;;;;5107631;28;20482;-81
2022/03/28 09:56:05;;;;;;;6.50;1.42;;;21.80;92.60;;;;;;5076580;28;20039;-81
2022/03/28 09:59:00;;;;;;;4.88;1.48;;;21.80;92.50;;;;;;5087956;28;20059;-85
2022/03/28 10:01:35;;;;;;;4.43;1.95;;;21.80;92.70;;;;;;5110940;28;20038;-85
2022/03/28 10:04:08;;;;;;;8.77;1.95;;;21.80;92.90;;;;;;5093506;28;20067;-80
2022/03/28 10:06:39;;;;;;;7.35;1.70;;;21.80;92.80;;;;;;5111934;28;20110;-79
2022/03/28 10:09:07;;;;;;;7.68;1.55;;;21.80;92.80;;;;;;5093757;28;20059;-81
2022/03/28 10:11:36;;;;;;;8.70;1.92;;;21.80;92.90;;;;;;5110002;28;20397;-81
2022/03/28 10:14:04;;;;;;;8.00;1.90;;;21.80;93.20;;;;;;5074955;28;20118;-80
2022/03/28 10:16:31;;;;;;;7.28;1.77;;;21.70;93.40;;;;;;5092812;28;20038;-81
2022/03/28 10:18:58;;;;;;;7.25;2.03;;;21.70;93.70;;;;;;5092028;28;20031;-79
2022/03/28 10:21:33;;;;;;;9.10;2.38;;;21.60;94.20;;;;;;5092387;28;20036;-78
2022/03/28 10:24:24;;;;;;;12.98;1.95;;;21.50;94.70;;;;;;5092796;28;20031;-77
2022/03/28 10:26:57;;;;;;;11.57;2.53;;;21.40;95.30;;;;;;5092529;28;20024;-79
2022/03/28 10:29:24;;;;;;;10.82;2.25;;;21.30;95.80;;;;;;5074321;28;20117;-78
2022/03/28 10:32:01;;;;;;;12.25;2.17;;;21.30;96.00;;;;;;5071529;28;20031;-79
2022/03/28 10:34:44;;;;;;;10.95;2.20;;;21.30;96.20;;;;;;5109166;27;20039;-81
2022/03/28 10:37:32;;;;;;;10.30;1.88;;;21.20;96.30;;;;;;5090957;28;20063;-80
2022/03/28 10:40:23;;;;;;;18.75;2.40;;;21.20;96.40;;;;;;5109023;28;20039;-83
2022/03/28 10:43:04;;;;;;;10.30;2.28;;;21.20;96.50;;;;;;5108403;28;20039;-83
2022/03/28 10:45:49;;;;;;;10.73;2.55;;;21.20;96.80;;;;;;5089007;28;20042;-79
2022/03/28 10:48:17;;;;;;;17.42;2.67;;;21.10;96.80;;;;;;5098375;27;20038;-79
2022/03/28 10:50:53;;;;;;;18.55;2.85;;;21.10;96.90;;;;;;5094536;28;20046;-83
2022/03/28 10:53:46;;;;;;;11.95;2.65;;;21.10;97.10;;;;;;5106921;28;20047;-77
2022/03/28 10:56:25;;;;;;;10.88;2.75;;;21.10;97.10;;;;;;5101447;28;20088;-77
2022/03/28 10:58:57;;;;;;;19.80;3.15;;;21.10;97.20;;;;;;5102437;27;20040;-78
2022/03/28 11:01:37;;;;;;;18.00;3.40;;;21.10;97.30;;;;;;5101517;27;20031;-79
2022/03/28 11:04:23;;;;;;;14.48;2.58;;;21.10;97.40;;;;;;5085589;27;20362;-77
2022/03/28 11:07:00;;;;;;;18.90;3.42;;;21.00;97.40;;;;;;5088144;28;20036;-76
2022/03/28 11:09:48;;;;;;;17.42;2.83;;;21.00;97.40;;;;;;5073741;28;20036;-77
2022/03/28 11:12:17;;;;;;;19.08;3.40;;;21.00;97.50;;;;;;5090061;28;20034;-76
2022/03/28 11:14:51;;;;;;;11.70;2.80;;;21.00;97.50;;;;;;5061337;28;20477;-75
2022/03/28 11:17:37;;;;;;;24.27;2.92;;;21.00;97.60;;;;;;5114111;28;20027;-77
2022/03/28 11:20:15;;;;;;;15.68;2.50;;;21.00;97.60;;;;;;5090674;27;20055;-76
2022/03/28 11:22:47;;;;;;;16.98;2.50;;;21.00;97.80;;;;;;5106747;28;20031;-77
2022/03/28 11:27:40;;;;;;;19.52;2.63;;;21.00;97.90;;;;;;5119227;27;20748;-75
2022/03/28 11:30:11;;;;;;;18.80;2.45;;;20.90;97.80;;;;;;5106501;28;20051;-74
2022/03/28 11:32:39;;;;;;;16.02;2.90;;;21.00;97.90;;;;;;5110601;27;20384;-75
2022/03/28 11:35:09;;;;;;;18.90;2.70;;;21.00;98.00;;;;;;5128659;27;20419;-74
2022/03/28 11:37:40;;;;;;;17.70;2.58;;;21.00;98.00;;;;;;5103040;27;20027;-76
2022/03/28 11:40:08;;;;;;;23.27;3.20;;;21.00;98.10;;;;;;5102625;27;20114;-75
2022/03/28 11:42:36;;;;;;;17.42;3.00;;;20.90;98.10;;;;;;5113796;27;20020;-76
2022/03/28 11:45:11;;;;;;;19.35;3.15;;;21.00;98.20;;;;;;5099336;27;20028;-76
2022/03/28 11:47:40;;;;;;;17.52;2.65;;;20.90;98.20;;;;;;5098719;27;20038;-75
2022/03/28 11:50:09;;;;;;;20.73;3.30;;;20.90;98.20;;;;;;5109835;27;20054;-75
2022/03/28 11:52:36;;;;;;;21.77;3.00;;;21.00;98.30;;;;;;5145842;27;20023;-75
2022/03/28 11:55:17;;;;;;;26.05;3.65;;;20.90;98.30;;;;;;5126452;27;20034;-75
2022/03/28 12:00:34;;;;;;;25.00;3.08;;;20.90;98.40;;;;;;5107417;27;20038;-75
2022/03/28 12:03:01;;;;;;;27.45;3.40;;;20.90;98.40;;;;;;5114606;27;20393;-75
2022/03/28 12:05:42;;;;;;;20.88;3.00;;;20.90;98.30;;;;;;5129124;27;20500;-76
2022/03/28 12:08:13;;;;;;;13.55;2.40;;;20.90;98.40;;;;;;5103391;27;20396;-75
2022/03/28 12:10:46;;;;;;;27.17;2.45;;;20.90;98.40;;;;;;5118564;27;20085;-77
2022/03/28 12:13:13;;;;;;;16.95;3.05;;;20.80;98.40;;;;;;5104423;27;20035;-79
2022/03/28 12:15:45;;;;;;;21.02;2.92;;;20.80;98.50;;;;;;5131677;27;20061;-79
2022/03/28 12:18:13;;;;;;;14.15;3.17;;;20.80;98.50;;;;;;5116154;27;20106;-80
2022/03/28 12:20:43;;;;;;;13.95;2.58;;;20.80;98.50;;;;;;5092856;27;20488;-81
2022/03/28 12:23:12;;;;;;;22.95;2.85;;;20.70;98.50;;;;;;5095311;28;20042;-78
2022/03/28 12:25:44;;;;;;;13.90;2.80;;;20.80;98.60;;;;;;5069172;28;20074;-81
2022/03/28 12:28:19;;;;;;;28.85;3.97;;;20.70;98.60;;;;;;5111696;28;20416;-79
2022/03/28 12:30:48;;;;;;;41.22;3.30;;;20.70;98.60;;;;;;5079009;27;20438;-80
2022/03/28 12:33:19;;;;;;;15.32;2.80;;;20.70;98.70;;;;;;5112145;28;20078;-79
2022/03/28 12:35:48;;;;;;;12.38;2.08;;;20.70;98.70;;;;;;5095973;27;20373;-78
2022/03/28 12:38:23;;;;;;;26.50;3.17;;;20.70;98.70;;;;;;5098040;27;20058;-80
2022/03/28 12:40:52;;;;;;;22.30;2.95;;;20.70;98.80;;;;;;5116253;27;20038;-79
2022/03/28 12:43:23;;;;;;;33.92;3.60;;;20.70;98.80;;;;;;5098228;27;20069;-81
2022/03/28 12:45:52;;;;;;;23.40;3.30;;;20.70;98.80;;;;;;5116042;27;20041;-81
2022/03/28 12:48:20;;;;;;;19.52;2.65;;;20.70;98.90;;;;;;5113888;27;20125;-81
2022/03/28 12:50:56;;;;;;;13.13;2.40;;;20.70;98.90;;;;;;5113919;27;20062;-79
2022/03/28 12:53:25;;;;;;;17.75;2.30;;;20.70;98.90;;;;;;5081075;28;20085;-79
2022/03/28 12:55:53;;;;;;;11.60;2.42;;;20.60;98.90;;;;;;5080913;28;20061;-79
2022/03/28 12:58:25;;;;;;;14.35;2.20;;;20.60;98.90;;;;;;5111050;27;20032;-79
2022/03/28 13:01:01;;;;;;;16.88;2.47;;;20.70;98.90;;;;;;5107605;28;20069;-78
2022/03/28 13:03:29;;;;;;;15.73;2.40;;;20.70;98.90;;;;;;5100130;27;20027;-79
2022/03/28 13:06:06;;;;;;;14.70;2.40;;;20.60;98.90;;;;;;5126974;27;20039;-79
2022/03/28 13:08:37;;;;;;;12.55;2.20;;;20.60;99.00;;;;;;5077681;28;20115;-77
2022/03/28 13:11:19;;;;;;;12.95;2.58;;;20.60;99.00;;;;;;5105551;28;20425;-77
2022/03/28 13:13:48;;;;;;;15.48;2.22;;;20.60;99.00;;;;;;5113145;27;20065;-79
2022/03/28 13:16:22;;;;;;;20.92;3.13;;;20.60;99.00;;;;;;5100009;27;20032;-78
2022/03/28 13:19:03;;;;;;;13.60;2.50;;;20.60;99.00;;;;;;5090269;28;20111;-80
2022/03/28 13:21:35;;;;;;;16.88;2.10;;;20.60;99.00;;;;;;5109207;27;20499;-78
2022/03/28 13:24:12;;;;;;;9.20;2.40;;;20.60;99.00;;;;;;5096816;27;20566;-78
2022/03/28 13:26:47;;;;;;;15.05;2.58;;;20.60;99.00;;;;;;5111568;27;20024;-80
2022/03/28 13:29:21;;;;;;;14.18;2.65;;;20.60;99.10;;;;;;5078471;27;20077;-81
2022/03/28 13:31:49;;;;;;;22.48;2.58;;;20.60;99.10;;;;;;5111877;27;20066;-80
2022/03/28 13:34:16;;;;;;;17.00;2.35;;;20.50;99.00;;;;;;5083030;27;20057;-81
2022/03/28 13:36:43;;;;;;;19.13;2.10;;;20.60;99.10;;;;;;5124027;27;20084;-79
2022/03/28 13:39:10;;;;;;;15.30;3.00;;;20.60;99.10;;;;;;5067844;28;20027;-80
2022/03/28 13:41:37;;;;;;;14.55;2.33;;;20.60;99.10;;;;;;5127674;27;20035;-79
2022/03/28 13:44:07;;;;;;;16.83;2.30;;;20.60;99.10;;;;;;5113577;27;20031;-80
2022/03/28 13:46:35;;;;;;;15.07;2.90;;;20.60;99.10;;;;;;5114261;27;20027;-81
2022/03/28 13:49:03;;;;;;;21.48;2.35;;;20.60;99.10;;;;;;5092823;27;20035;-80
2022/03/28 13:51:30;;;;;;;15.63;2.35;;;20.60;99.10;;;;;;5091197;28;20063;-79
2022/03/28 13:53:58;;;;;;;14.15;2.20;;;20.50;99.10;;;;;;5077354;28;20024;-80
2022/03/28 13:56:25;;;;;;;16.08;2.33;;;20.50;99.10;;;;;;5092762;27;20481;-79
2022/03/28 13:58:53;;;;;;;19.48;2.75;;;20.50;99.10;;;;;;5095109;27;20023;-79
2022/03/28 14:01:21;;;;;;;15.63;2.45;;;20.50;99.10;;;;;;5096032;27;20031;-79
2022/03/28 14:03:48;;;;;;;17.98;2.28;;;20.50;99.10;;;;;;5112053;27;20080;-80
2022/03/28 14:06:16;;;;;;;11.20;2.40;;;20.60;99.20;;;;;;5097031;27;20035;-78
2022/03/28 14:08:43;;;;;;;14.02;2.28;;;20.60;99.10;;;;;;5113092;27;20449;-80
2022/03/28 14:11:11;;;;;;;21.30;2.70;;;20.50;99.10;;;;;;5125865;27;20031;-79
2022/03/28 14:13:40;;;;;;;10.93;2.28;;;20.50;99.20;;;;;;5064989;27;20051;-79
2022/03/28 14:16:08;;;;;;;16.80;2.45;;;20.50;99.10;;;;;;5131104;27;20050;-79
2022/03/28 14:18:35;;;;;;;17.48;2.80;;;20.50;99.10;;;;;;5131170;27;20080;-80
2022/03/28 14:21:02;;;;;;;17.02;2.92;;;20.50;99.10;;;;;;5132819;27;20122;-80
2022/03/28 14:23:30;;;;;;;10.45;2.58;;;20.50;99.20;;;;;;5129906;27;20027;-79
2022/03/28 14:25:58;;;;;;;14.27;2.15;;;20.50;99.10;;;;;;5112645;27;20035;-79
2022/03/28 14:28:25;;;;;;;19.25;2.83;;;20.50;99.10;;;;;;5111990;27;20039;-80
2022/03/28 14:30:53;;;;;;;18.77;2.83;;;20.50;99.20;;;;;;5097109;28;20685;-81
2022/03/28 14:33:20;;;;;;;15.98;2.67;;;20.50;99.20;;;;;;5112596;27;20031;-79
2022/03/28 14:35:48;;;;;;;23.58;2.70;;;20.50;99.20;;;;;;5109850;28;20106;-80
2022/03/28 14:38:15;;;;;;;15.20;2.40;;;20.50;99.10;;;;;;5110200;28;20028;-81
2022/03/28 14:40:43;;;;;;;17.75;2.58;;;20.40;99.10;;;;;;5109227;28;20032;-81
2022/03/28 14:43:10;;;;;;;11.18;2.45;;;20.40;99.10;;;;;;5113962;27;20472;-80
2022/03/28 14:48:22;;;;;;;10.55;2.55;;;20.40;99.10;;;;;;5114788;28;20050;-83
2022/03/28 14:50:50;;;;;;;12.82;2.80;;;20.40;99.20;;;;;;5112424;28;20122;-81
2022/03/28 14:53:18;;;;;;;20.17;2.72;;;20.40;99.20;;;;;;5096722;28;20441;-81
2022/03/28 14:55:45;;;;;;;10.93;2.63;;;20.30;99.20;;;;;;5117868;27;20046;-82
2022/03/28 14:58:12;;;;;;;19.33;2.60;;;20.40;99.20;;;;;;5118018;28;20054;-80
2022/03/28 15:00:40;;;;;;;23.17;3.35;;;20.30;99.20;;;;;;5126194;28;20106;-81
2022/03/28 15:03:07;;;;;;;18.88;3.03;;;20.40;99.20;;;;;;5098232;28;20039;-83
2022/03/28 15:05:35;;;;;;;11.52;2.50;;;20.30;99.20;;;;;;5109328;28;20031;-86
2022/03/28 15:08:04;;;;;;;33.47;3.25;;;20.30;99.20;;;;;;5092186;28;20036;-84
2022/03/28 15:10:34;;;;;;;15.35;2.72;;;20.30;99.20;;;;;;5108653;28;20066;-82
2022/03/28 15:13:01;;;;;;;;;;;20.20;99.20;;;;;;5111845;28;20043;-80
2022/03/28 15:15:31;;;;;;;21.05;3.22;;;20.20;99.20;;;;;;5105516;28;19944;-82
2022/03/28 15:17:58;;;;;;;9.98;2.30;;;20.20;99.30;;;;;;5113043;28;20032;-82
2022/03/28 15:20:25;;;;;;;16.40;2.63;;;20.20;99.30;;;;;;5125339;28;20415;-88
2022/03/28 15:22:52;;;;;;;15.43;2.53;;;20.20;99.20;;;;;;5122060;27;20036;-81
2022/03/28 15:25:21;;;;;;;25.40;3.10;;;20.20;99.20;;;;;;5110914;28;20028;-81
2022/03/28 15:27:49;;;;;;;10.77;2.20;;;20.20;99.20;;;;;;5115874;28;20071;-92
2022/03/28 15:30:17;;;;;;;13.90;2.08;;;20.10;99.30;;;;;;5125184;28;20595;-84
2022/03/28 15:32:44;;;;;;;17.52;2.22;;;20.10;99.30;;;;;;5101606;28;20035;-86
2022/03/28 15:35:12;;;;;;;19.00;2.25;;;20.10;99.30;;;;;;5116800;28;20054;-87
2022/03/28 15:37:39;;;;;;;17.50;2.63;;;20.10;99.30;;;;;;5077823;28;20032;-84
2022/03/28 15:40:07;;;;;;;8.98;1.67;;;20.20;99.30;;;;;;5108167;28;20032;-85
2022/03/28 15:42:34;;;;;;;15.00;2.03;;;20.20;99.30;;;;;;5131836;28;20034;-83
2022/03/28 15:45:01;;;;;;;11.18;2.33;;;20.20;99.30;;;;;;5109412;28;20456;-85
2022/03/28 15:47:28;;;;;;;17.30;2.55;;;20.20;99.30;;;;;;5114330;28;20027;-89
2022/03/28 15:49:56;;;;;;;14.98;2.30;;;20.20;99.30;;;;;;5108697;28;20077;-85
2022/03/28 15:52:23;;;;;;;15.65;2.00;;;20.20;99.30;;;;;;5115679;27;20115;-87
2022/03/28 15:54:51;;;;;;;12.18;1.67;;;20.20;99.30;;;;;;5115950;27;20039;-82
2022/03/28 15:57:20;;;;;;;15.10;1.90;;;20.10;99.30;;;;;;5080302;28;20034;-87
2022/03/28 15:59:47;;;;;;;18.90;2.13;;;20.10;99.30;;;;;;5108288;28;20044;-94
2022/03/28 16:02:14;;;;;;;15.55;2.08;;;20.10;99.30;;;;;;5116913;28;20027;-84
2022/03/28 16:04:41;;;;;;;22.50;2.05;;;20.00;99.30;;;;;;5114941;28;20110;-85
2022/03/28 16:07:09;;;;;;;9.95;2.13;;;20.00;99.30;;;;;;5101872;28;20027;-85
2022/03/28 16:09:37;;;;;;;12.73;1.67;;;20.00;99.30;;;;;;5082687;28;20035;-92
2022/03/28 16:12:05;;;;;;;9.07;2.10;;;20.00;99.30;;;;;;5097723;28;20031;-82
2022/03/28 16:14:33;;;;;;;11.43;1.75;;;20.00;99.40;;;;;;5098122;28;20034;-82
2022/03/28 16:17:00;;;;;;;11.50;1.67;;;20.00;99.30;;;;;;5114683;28;20023;-87
2022/03/28 16:19:27;;;;;;;12.15;1.80;;;20.00;99.30;;;;;;5115050;28;20039;-82
2022/03/28 16:21:54;;;;;;;13.75;1.92;;;19.90;99.40;;;;;;5078881;28;20032;-83
2022/03/28 16:24:22;;;;;;;15.07;1.92;;;20.00;99.40;;;;;;5114431;28;20032;-84
2022/03/28 16:26:49;;;;;;;11.90;1.92;;;20.00;99.40;;;;;;5101684;27;20035;-85
2022/03/28 16:29:16;;;;;;;10.63;2.17;;;19.90;99.30;;;;;;5135310;27;20047;-88
2022/03/28 16:31:43;;;;;;;13.18;2.08;;;20.00;99.40;;;;;;5093893;27;20393;-80
2022/03/28 16:34:10;;;;;;;11.85;1.77;;;20.00;99.40;;;;;;5112846;27;20042;-82
2022/03/28 16:36:38;;;;;;;7.57;1.52;;;19.90;99.30;;;;;;5113368;27;20067;-82
2022/03/28 16:39:05;;;;;;;9.13;1.40;;;20.00;99.40;;;;;;5115318;27;20027;-82
2022/03/28 16:41:32;;;;;;;13.32;2.15;;;20.00;99.40;;;;;;5130640;27;20035;-83
2022/03/28 16:43:59;;;;;;;15.10;1.88;;;20.00;99.40;;;;;;5126047;27;20035;-85
2022/03/28 16:46:29;;;;;;;16.88;2.28;;;20.00;99.40;;;;;;5114988;27;20035;-85
2022/03/28 16:48:56;;;;;;;11.03;1.90;;;20.00;99.40;;;;;;5128388;27;20065;-84
2022/03/28 16:51:23;;;;;;;15.20;2.33;;;20.00;99.40;;;;;;5113113;28;20268;-85
2022/03/28 16:53:51;;;;;;;15.10;2.03;;;20.00;99.40;;;;;;5113588;28;20034;-82
2022/03/28 16:56:21;;;;;;;10.02;1.88;;;20.00;99.40;;;;;;5098190;27;20088;-83
2022/03/28 16:58:48;;;;;;;19.00;1.83;;;20.00;99.40;;;;;;5120407;27;20032;-80
2022/03/28 17:01:16;;;;;;;16.17;2.10;;;20.00;99.40;;;;;;5117537;27;20038;-80
2022/03/28 17:03:43;;;;;;;12.07;2.47;;;20.00;99.50;;;;;;5115528;27;20031;-80
2022/03/28 17:06:11;;;;;;;15.10;1.70;;;19.90;99.40;;;;;;5133620;27;20425;-81
2022/03/28 17:08:39;;;;;;;15.77;2.25;;;20.00;99.40;;;;;;5129959;27;20038;-81
2022/03/28 17:11:07;;;;;;;13.30;2.72;;;20.00;99.50;;;;;;5111794;28;20135;-81
2022/03/28 17:13:34;;;;;;;13.93;1.60;;;20.00;99.40;;;;;;5113719;27;20042;-82
2022/03/28 17:16:01;;;;;;;10.52;2.17;;;20.00;99.50;;;;;;5084697;28;20039;-83
2022/03/28 17:18:29;;;;;;;7.80;1.98;;;20.00;99.50;;;;;;5124849;27;20063;-82
2022/03/28 17:21:02;;;;;;;14.05;2.20;;;20.00;99.50;;;;;;5120527;27;20023;-81
2022/03/28 17:23:29;;;;;;;14.23;2.25;;;20.00;99.40;;;;;;5115579;27;20089;-80
2022/03/28 17:25:57;;;;;;;8.85;1.92;;;20.00;99.50;;;;;;5103239;28;20100;-83
2022/03/28 17:28:31;;;;;;;12.48;1.88;;;20.00;99.50;;;;;;5090742;28;20070;-82
2022/03/28 17:30:58;;;;;;;13.40;2.13;;;20.00;99.50;;;;;;5088296;28;20040;-82
2022/03/28 17:33:25;;;;;;;13.30;2.28;;;20.00;99.50;;;;;;5109304;28;20024;-80
2022/03/28 17:35:53;;;;;;;11.52;2.10;;;20.00;99.50;;;;;;5111797;28;20039;-82
2022/03/28 17:38:20;;;;;;;12.40;2.00;;;20.00;99.50;;;;;;5109781;28;20130;-79
2022/03/28 17:40:47;;;;;;;8.90;2.20;;;20.00;99.50;;;;;;5109915;28;20512;-81
2022/03/28 17:43:14;;;;;;;12.55;1.92;;;20.00;99.50;;;;;;5093592;28;20131;-85
2022/03/28 17:45:43;;;;;;;18.02;2.15;;;20.10;99.50;;;;;;5111620;28;20051;-84
2022/03/28 17:48:10;;;;;;;9.18;2.20;;;20.00;99.50;;;;;;5081579;28;20089;-85
2022/03/28 17:50:38;;;;;;;20.40;2.30;;;20.00;99.50;;;;;;5112408;28;20044;-82
2022/03/28 17:53:06;;;;;;;18.40;2.38;;;20.00;99.50;;;;;;5111745;28;20028;-82
2022/03/28 17:55:36;;;;;;;13.95;2.20;;;20.00;99.50;;;;;;5093057;28;20062;-79
2022/03/28 17:58:06;;;;;;;11.93;2.50;;;20.10;99.50;;;;;;5081659;28;20034;-85
2022/03/28 18:00:34;;;;;;;18.45;2.58;;;20.00;99.50;;;;;;5068915;28;20020;-88
2022/03/28 18:03:01;;;;;;;10.52;2.90;;;20.00;99.50;;;;;;5111500;28;20032;-82
2022/03/28 18:05:29;;;;;;;15.70;2.70;;;20.10;99.50;;;;;;5088303;28;20023;-84
2022/03/28 18:07:56;;;;;;;21.13;3.00;;;20.00;99.50;;;;;;5077446;28;20039;-91
2022/03/28 18:10:23;;;;;;;14.65;2.63;;;20.00;99.50;;;;;;5094292;28;20472;-84
2022/03/28 18:12:50;;;;;;;14.70;2.47;;;20.00;99.50;;;;;;5111997;28;20466;-91
2022/03/28 18:15:19;;;;;;;12.80;2.35;;;20.00;99.50;;;;;;5112188;28;20035;-84
2022/03/28 18:17:47;;;;;;;13.07;2.40;;;20.00;99.50;;;;;;5110357;28;20027;-83
2022/03/28 18:20:14;;;;;;;10.50;2.30;;;20.00;99.50;;;;;;5110908;28;20032;-89
2022/03/28 18:22:44;;;;;;;11.90;2.83;;;20.00;99.50;;;;;;5111274;28;20023;-78
2022/03/28 18:25:13;;;;;;;15.50;2.90;;;20.00;99.50;;;;;;5094360;28;20034;-87
2022/03/28 18:27:44;;;;;;;14.27;3.33;;;20.00;99.50;;;;;;5111970;28;20077;-85
2022/03/28 18:30:12;;;;;;;12.10;2.75;;;20.00;99.50;;;;;;5078061;28;20043;-80
2022/03/28 18:32:39;;;;;;;16.02;2.55;;;20.00;99.50;;;;;;5093866;28;20086;-90
2022/03/28 18:35:07;;;;;;;11.48;2.97;;;20.00;99.60;;;;;;5077081;28;20123;-87
2022/03/28 18:37:34;;;;;;;15.75;2.75;;;20.10;99.50;;;;;;5069844;28;20103;-90
2022/03/28 18:40:01;;;;;;;12.88;2.42;;;20.10;99.50;;;;;;5074697;28;20039;-91
2022/03/28 18:42:28;;;;;;;13.00;3.20;;;20.10;99.50;;;;;;5092741;28;20028;-88
2022/03/28 18:44:56;;;;;;;12.25;2.55;;;20.10;99.60;;;;;;5078557;28;20036;-90
2022/03/28 18:47:23;;;;;;;18.42;3.13;;;20.10;99.50;;;;;;5103745;28;20028;-86
2022/03/28 18:49:50;;;;;;;25.70;2.75;;;20.10;99.50;;;;;;5091869;28;20036;-83
2022/03/28 18:52:18;;;;;;;15.50;2.70;;;20.10;99.60;;;;;;5078932;28;20043;-87
2022/03/28 18:54:46;;;;;;;14.48;2.90;;;20.10;99.50;;;;;;5066449;28;20504;-89
2022/03/28 18:57:13;;;;;;;19.08;2.90;;;20.10;99.50;;;;;;5112553;28;20040;-90
2022/03/28 18:59:40;;;;;;;11.30;2.67;;;20.10;99.60;;;;;;5095471;28;20498;-92
2022/03/28 19:02:09;;;;;;;21.98;3.13;;;20.10;99.50;;;;;;5096964;28;20044;-93
2022/03/28 19:04:36;;;;;;;14.38;2.90;;;20.10;99.60;;;;;;5075653;28;20032;-90
2022/03/28 19:07:03;;;;;;;14.35;2.50;;;20.10;99.60;;;;;;5093057;28;20112;-88
2022/03/28 19:09:31;;;;;;;16.45;2.50;;;20.10;99.50;;;;;;5075366;28;20060;-91
2022/03/28 19:11:58;;;;;;;15.05;2.83;;;20.10;99.50;;;;;;5095047;28;20032;-91
2022/03/28 19:14:26;;;;;;;16.65;2.67;;;20.10;99.50;;;;;;5074877;28;20036;-92
2022/03/28 19:16:53;;;;;;;15.40;3.15;;;20.00;99.50;;;;;;5113134;28;20036;-92
2022/03/28 19:19:20;;;;;;;13.27;2.60;;;20.00;99.60;;;;;;5099492;28;20028;-93
2022/03/28 19:21:48;;;;;;;11.45;2.90;;;20.00;99.50;;;;;;5081296;28;20406;-92
2022/03/28 19:24:15;;;;;;;13.73;2.72;;;20.00;99.50;;;;;;5083308;28;20098;-94
2022/03/28 19:26:45;;;;;;;14.23;2.75;;;20.00;99.60;;;;;;5098091;28;20028;-89
2022/03/28 19:29:13;;;;;;;12.50;2.33;;;20.00;99.60;;;;;;5131661;27;20403;-91
2022/03/28 19:31:40;;;;;;;12.05;2.22;;;20.00;99.60;;;;;;5108499;28;20042;-89
2022/03/28 19:34:07;;;;;;;15.98;2.90;;;19.90;99.60;;;;;;5116759;27;20050;-90
2022/03/28 19:36:34;;;;;;;13.38;2.13;;;19.90;99.60;;;;;;5099137;28;20020;-85
2022/03/28 19:39:02;;;;;;;8.30;2.13;;;19.90;99.60;;;;;;5102627;27;20052;-91
2022/03/28 19:41:29;;;;;;;15.30;2.70;;;19.90;99.60;;;;;;5114824;28;20030;-87
2022/03/28 19:43:56;;;;;;;11.88;2.28;;;19.80;99.50;;;;;;5116388;28;20024;-85
2022/03/28 19:46:23;;;;;;;9.43;2.13;;;19.90;99.60;;;;;;5114498;27;20060;-87
2022/03/28 19:48:50;;;;;;;16.55;2.65;;;19.80;99.60;;;;;;5117817;27;20030;-88
2022/03/28 19:51:18;;;;;;;6.90;2.22;;;19.80;99.60;;;;;;5137100;27;20512;-92
2022/03/28 19:53:45;;;;;;;6.65;2.25;;;19.80;99.60;;;;;;5098673;28;20036;-93
2022/03/28 19:56:12;;;;;;;7.78;2.97;;;19.80;99.60;;;;;;5124238;27;20128;-92
2022/03/28 19:58:39;;;;;;;8.27;2.17;;;19.80;99.60;;;;;;5128106;27;20031;-92
2022/03/28 20:01:07;;;;;;;9.05;2.45;;;19.80;99.60;;;;;;5119465;27;20068;-92
2022/03/28 20:03:35;;;;;;;8.45;2.55;;;19.80;99.60;;;;;;5098569;28;20027;-90
2022/03/28 20:06:02;;;;;;;11.80;2.47;;;19.80;99.60;;;;;;5102359;27;20034;-89
2022/03/28 20:08:29;;;;;;;8.60;3.03;;;19.80;99.60;;;;;;5116833;27;20035;-88
2022/03/28 20:10:56;;;;;;;13.57;3.63;;;19.80;99.60;;;;;;5098675;28;20039;-92
2022/03/28 20:13:23;;;;;;;9.02;2.60;;;19.80;99.60;;;;;;5098807;28;20048;-87
2022/03/28 20:15:51;;;;;;;16.40;2.45;;;19.80;99.60;;;;;;5114789;28;20120;-87
2022/03/28 20:18:19;;;;;;;8.80;2.85;;;19.80;99.60;;;;;;5115400;28;20028;-91
2022/03/28 20:20:46;;;;;;;9.75;2.67;;;19.80;99.60;;;;;;5116595;28;20537;-86
2022/03/28 20:23:14;;;;;;;9.65;2.17;;;19.80;99.60;;;;;;5097769;28;20038;-90
2022/03/28 20:25:41;;;;;;;9.55;2.47;;;19.80;99.60;;;;;;5102047;27;20042;-91
2022/03/28 20:28:08;;;;;;;9.95;2.85;;;19.80;99.60;;;;;;5135503;27;20031;-84
2022/03/28 20:30:36;;;;;;;11.32;3.20;;;19.80;99.60;;;;;;5090730;28;20115;-90
2022/03/28 20:33:04;;;;;;;10.65;3.38;;;19.80;99.60;;;;;;5116728;27;20366;-90
2022/03/28 20:35:31;;;;;;;8.85;2.83;;;19.80;99.60;;;;;;5137248;27;20035;-91
2022/03/28 20:37:59;;;;;;;8.52;2.95;;;19.80;99.60;;;;;;5135964;27;20035;-89
2022/03/28 20:40:26;;;;;;;7.22;2.53;;;19.80;99.60;;;;;;5136706;27;20039;-87
2022/03/28 20:42:53;;;;;;;12.05;3.00;;;19.80;99.60;;;;;;5114656;27;20035;-84
2022/03/28 20:45:21;;;;;;;12.30;2.90;;;19.80;99.60;;;;;;5133551;27;20027;-84
2022/03/28 20:47:48;;;;;;;12.18;3.00;;;19.80;99.60;;;;;;5115682;27;20023;-84
2022/03/28 20:50:15;;;;;;;7.85;3.00;;;19.80;99.60;;;;;;5133610;27;20043;-84
2022/03/28 20:52:43;;;;;;;9.15;3.08;;;19.80;99.60;;;;;;5133897;27;20159;-84
2022/03/28 20:55:12;;;;;;;12.85;2.70;;;19.90;99.60;;;;;;5124143;27;20031;-83
2022/03/28 20:57:39;;;;;;;17.27;7.10;;;19.80;99.60;;;;;;5115872;27;20034;-81
2022/03/28 21:00:08;;;;;;;15.02;4.70;;;19.80;99.60;;;;;;5125536;27;20647;-85
2022/03/28 21:02:35;;;;;;;18.40;6.05;;;19.90;99.60;;;;;;5099977;28;20031;-84
2022/03/28 21:05:02;;;;;;;11.85;4.15;;;19.90;99.60;;;;;;5118784;27;20039;-84
2022/03/28 21:07:29;;;;;;;9.55;2.83;;;19.80;99.60;;;;;;5133814;27;20115;-79
2022/03/28 21:09:58;;;;;;;9.57;3.05;;;19.80;99.60;;;;;;5127158;27;20047;-84
2022/03/28 21:12:25;;;;;;;6.88;2.40;;;19.80;99.60;;;;;;5091012;27;20046;-85
2022/03/28 21:14:53;;;;;;;8.95;2.42;;;19.80;99.60;;;;;;5106076;27;20036;-83
2022/03/28 21:17:20;;;;;;;8.43;2.90;;;19.80;99.60;;;;;;5112835;27;20065;-84
2022/03/28 21:19:50;;;;;;;10.13;3.40;;;19.90;99.70;;;;;;5113695;27;20030;-85
